createdAt,value
2023-01-31T00:05:00.671Z,7.60
2023-01-31T00:10:04.202Z,8.52
2023-01-31T00:15:06.585Z,7.13
2023-01-31T00:20:09.527Z,8.27
2023-01-31T00:25:11.582Z,4.53
2023-01-31T00:30:13.695Z,3.47
2023-01-31T00:35:15.710Z,6.45
2023-01-31T00:40:20.337Z,5.07
2023-01-31T00:45:22.491Z,3.85
2023-01-31T00:50:28.767Z,12.25
2023-01-31T00:55:30.980Z,6.18
2023-01-31T01:00:33.533Z,8.00
2023-01-31T01:05:35.961Z,5.60
2023-01-31T01:10:38.164Z,3.80
2023-01-31T01:15:40.245Z,2.78
2023-01-31T01:20:44.085Z,5.53
2023-01-31T01:25:46.202Z,4.55
2023-01-31T01:30:48.228Z,3.95
2023-01-31T01:35:50.347Z,3.70
2023-01-31T01:40:52.359Z,3.85
2023-01-31T01:45:54.400Z,4.55
2023-01-31T01:50:58.032Z,3.92
2023-01-31T01:56:26.796Z,4.10
2023-01-31T02:01:33.487Z,3.65
2023-01-31T02:06:36.032Z,4.35
2023-01-31T02:11:38.118Z,4.15
2023-01-31T02:16:40.284Z,4.40
2023-01-31T02:22:14.260Z,5.35
2023-01-31T02:27:38.275Z,8.45
2023-01-31T02:32:58.673Z,6.40
2023-01-31T02:38:41.358Z,3.58
2023-01-31T02:44:29.315Z,6.72
2023-01-31T02:49:39.670Z,5.18
2023-01-31T02:55:20.022Z,4.57
2023-01-31T03:00:24.244Z,3.97
2023-01-31T03:05:26.670Z,10.02
2023-01-31T03:11:08.336Z,12.10
2023-01-31T03:16:45.306Z,11.40
2023-01-31T03:21:57.687Z,9.05
2023-01-31T03:27:02.754Z,7.97
2023-01-31T03:32:12.640Z,6.40
2023-01-31T03:37:36.151Z,10.18
2023-01-31T03:43:01.751Z,11.88
2023-01-31T03:48:10.194Z,11.38
2023-01-31T03:53:29.382Z,12.10
2023-01-31T03:58:38.462Z,9.30
2023-01-31T04:03:46.062Z,8.00
2023-01-31T04:08:49.324Z,5.88
2023-01-31T04:13:51.498Z,8.32
2023-01-31T04:18:53.629Z,5.72
2023-01-31T04:23:55.939Z,7.72
2023-01-31T04:28:57.995Z,8.40
2023-01-31T04:34:00.106Z,8.00
2023-01-31T04:39:02.312Z,4.57
2023-01-31T04:44:04.495Z,5.13
2023-01-31T04:49:06.766Z,11.00
2023-01-31T04:54:09.341Z,4.35
2023-01-31T04:59:11.454Z,9.07
2023-01-31T05:04:13.574Z,7.57
2023-01-31T05:09:15.676Z,7.63
2023-01-31T05:14:18.560Z,5.13
2023-01-31T05:19:20.641Z,7.03
2023-01-31T05:24:23.350Z,12.35
2023-01-31T05:29:26.910Z,5.78
2023-01-31T05:34:32.809Z,8.25
2023-01-31T05:39:35.929Z,5.57
2023-01-31T05:44:38.087Z,6.82
2023-01-31T05:49:40.471Z,3.47
2023-01-31T05:54:42.547Z,4.70
2023-01-31T05:59:44.841Z,8.95
2023-01-31T06:04:47.286Z,7.55
2023-01-31T06:09:49.410Z,9.85
2023-01-31T06:14:51.553Z,9.13
2023-01-31T06:19:53.614Z,8.25
2023-01-31T06:24:55.754Z,5.03
2023-01-31T06:29:58.022Z,4.63
2023-01-31T06:35:00.159Z,3.33
2023-01-31T06:40:02.232Z,2.28
2023-01-31T06:45:04.605Z,5.78
2023-01-31T06:50:07.031Z,6.88
2023-01-31T06:55:09.407Z,4.93
2023-01-31T07:00:12.080Z,5.15
2023-01-31T07:05:15.311Z,5.28
2023-01-31T07:10:18.202Z,5.88
2023-01-31T07:15:20.652Z,10.60
2023-01-31T07:20:23.399Z,9.77
2023-01-31T07:25:26.705Z,9.25
2023-01-31T07:30:29.730Z,5.78
2023-01-31T07:35:32.310Z,6.57
2023-01-31T07:40:34.425Z,3.03
2023-01-31T07:45:36.752Z,2.47
2023-01-31T07:50:39.105Z,4.75
2023-01-31T07:55:41.174Z,5.65
2023-01-31T08:01:01.988Z,4.55
2023-01-31T08:06:09.345Z,4.05
2023-01-31T08:11:11.983Z,3.08
2023-01-31T08:16:14.431Z,8.65
2023-01-31T08:21:17.048Z,28.73
2023-01-31T08:26:21.368Z,21.02
2023-01-31T08:31:25.640Z,20.40
2023-01-31T08:36:34.310Z,19.15
2023-01-31T08:41:37.390Z,15.93
2023-01-31T08:46:39.594Z,20.50
2023-01-31T08:51:41.919Z,13.80
2023-01-31T08:56:44.069Z,14.13
2023-01-31T09:01:46.868Z,17.92
2023-01-31T09:06:49.822Z,23.23
2023-01-31T09:11:51.967Z,18.52
2023-01-31T09:16:54.164Z,19.77
2023-01-31T09:21:56.550Z,15.45
2023-01-31T09:26:58.765Z,8.52
2023-01-31T09:32:01.168Z,12.00
2023-01-31T09:37:03.260Z,5.97
2023-01-31T09:42:24.596Z,9.35
2023-01-31T09:47:31.006Z,8.75
2023-01-31T09:52:33.962Z,9.77
2023-01-31T09:57:48.341Z,7.82
2023-01-31T10:02:59.567Z,9.20
2023-01-31T10:08:39.751Z,13.70
2023-01-31T10:13:59.136Z,11.10
2023-01-31T10:19:33.106Z,13.23
2023-01-31T10:24:46.295Z,5.65
2023-01-31T10:29:52.633Z,12.73
2023-01-31T10:35:01.925Z,16.33
2023-01-31T10:40:13.927Z,11.10
2023-01-31T10:45:22.460Z,15.57
2023-01-31T10:50:38.517Z,11.18
2023-01-31T10:56:19.936Z,15.40
2023-01-31T11:01:22.180Z,15.90
2023-01-31T11:06:24.824Z,9.43
2023-01-31T11:11:29.369Z,11.10
2023-01-31T11:16:35.617Z,10.43
2023-01-31T11:21:39.993Z,18.90
2023-01-31T11:26:52.683Z,10.75
2023-01-31T11:31:57.387Z,9.60
2023-01-31T11:37:18.698Z,12.68
2023-01-31T11:42:20.805Z,9.88
2023-01-31T11:47:42.067Z,10.98
2023-01-31T11:52:44.183Z,9.48
2023-01-31T11:57:46.410Z,7.63
2023-01-31T12:02:54.110Z,15.38
2023-01-31T12:07:57.271Z,7.82
2023-01-31T12:13:16.650Z,16.00
2023-01-31T12:18:44.170Z,12.73
2023-01-31T12:23:55.006Z,11.23
2023-01-31T12:29:25.747Z,13.10
2023-01-31T12:35:00.774Z,11.32
2023-01-31T12:46:07.195Z,9.95
2023-01-31T12:56:29.176Z,11.65
2023-01-31T13:01:48.628Z,10.15
2023-01-31T13:06:55.058Z,8.43
2023-01-31T13:12:05.999Z,10.30
2023-01-31T13:17:13.767Z,8.88
2023-01-31T13:22:44.905Z,6.60
2023-01-31T13:28:27.445Z,7.28
2023-01-31T13:33:59.340Z,6.88
2023-01-31T13:39:09.731Z,5.22
2023-01-31T13:44:14.611Z,3.75
2023-01-31T13:49:28.751Z,4.03
2023-01-31T13:54:38.877Z,3.53
2023-01-31T13:59:41.083Z,1.63
2023-01-31T14:04:43.739Z,4.78
2023-01-31T14:09:52.316Z,3.72
2023-01-31T14:14:57.779Z,3.75
2023-01-31T14:20:07.419Z,2.40
2023-01-31T14:25:09.473Z,3.33
2023-01-31T14:30:21.935Z,5.93
2023-01-31T14:35:33.949Z,5.65
2023-01-31T14:40:48.239Z,5.38
2023-01-31T14:46:02.834Z,7.47
2023-01-31T14:51:20.794Z,6.50
2023-01-31T14:56:44.583Z,5.75
2023-01-31T15:01:47.371Z,8.82
2023-01-31T15:06:52.214Z,4.57
2023-01-31T15:11:56.111Z,5.95
2023-01-31T15:17:35.163Z,6.32
2023-01-31T15:22:41.589Z,6.55
2023-01-31T15:27:44.055Z,6.07
2023-01-31T15:33:12.768Z,5.50
2023-01-31T15:38:33.485Z,10.25
2023-01-31T15:43:38.886Z,6.28
2023-01-31T15:48:44.241Z,3.28
2023-01-31T15:53:47.744Z,5.60
2023-01-31T15:58:55.586Z,4.45
2023-01-31T16:03:59.197Z,4.38
2023-01-31T16:09:03.403Z,6.28
2023-01-31T16:14:07.862Z,4.38
2023-01-31T16:19:23.708Z,5.50
2023-01-31T16:24:26.201Z,5.63
2023-01-31T16:29:50.679Z,4.75
2023-01-31T16:35:01.423Z,7.68
2023-01-31T16:40:06.589Z,6.25
2023-01-31T16:45:33.859Z,7.30
2023-01-31T16:50:43.288Z,5.53
2023-01-31T16:55:46.137Z,4.30
2023-01-31T17:00:48.714Z,3.80
2023-01-31T17:05:50.827Z,3.22
2023-01-31T17:10:52.882Z,4.90
2023-01-31T17:15:54.957Z,5.95
2023-01-31T17:20:58.591Z,4.57
2023-01-31T17:26:00.603Z,6.97
2023-01-31T17:31:02.785Z,5.00
2023-01-31T17:36:10.092Z,4.72
2023-01-31T17:41:15.704Z,2.20
2023-01-31T17:46:18.903Z,5.30
2023-01-31T17:51:21.057Z,9.38
2023-01-31T17:56:23.552Z,10.18
2023-01-31T18:01:25.612Z,10.27
2023-01-31T18:06:27.662Z,8.60
2023-01-31T18:11:29.695Z,8.02
2023-01-31T18:16:31.864Z,7.00
2023-01-31T18:21:37.068Z,8.05
2023-01-31T18:26:41.153Z,7.22
2023-01-31T18:31:43.245Z,16.00
2023-01-31T18:36:45.549Z,22.15
2023-01-31T18:41:47.613Z,18.48
2023-01-31T18:46:49.784Z,12.63
2023-01-31T18:51:51.881Z,11.40
2023-01-31T18:56:53.997Z,15.77
2023-01-31T19:01:56.057Z,15.43
2023-01-31T19:06:58.343Z,13.25
2023-01-31T19:12:00.414Z,17.92
2023-01-31T19:17:02.555Z,23.33
2023-01-31T19:22:04.569Z,22.42
2023-01-31T19:27:06.568Z,20.63
2023-01-31T19:32:08.676Z,16.90
2023-01-31T19:37:10.720Z,15.00
2023-01-31T19:42:13.095Z,16.25
2023-01-31T19:47:15.081Z,15.10
2023-01-31T19:52:17.137Z,9.55
2023-01-31T19:57:19.318Z,18.55
2023-01-31T20:02:21.445Z,10.98
2023-01-31T20:07:23.514Z,9.07
2023-01-31T20:12:25.852Z,10.07
2023-01-31T20:17:28.123Z,12.55
2023-01-31T20:22:30.280Z,16.05
2023-01-31T20:27:35.449Z,10.80
2023-01-31T20:32:37.497Z,10.30
2023-01-31T20:37:40.382Z,13.38
2023-01-31T20:42:42.438Z,18.75
2023-01-31T20:47:44.514Z,12.65
2023-01-31T20:52:46.543Z,11.38
2023-01-31T20:57:50.257Z,15.18
2023-01-31T21:02:52.430Z,9.45
2023-01-31T21:07:54.579Z,10.63
2023-01-31T21:12:56.651Z,12.98
2023-01-31T21:17:58.707Z,14.05
2023-01-31T21:23:00.752Z,11.80
2023-01-31T21:28:03.085Z,14.52
2023-01-31T21:33:05.216Z,18.30
2023-01-31T21:38:07.235Z,12.30
2023-01-31T21:43:09.393Z,9.38
2023-01-31T21:48:29.949Z,13.57
2023-01-31T21:53:32.145Z,15.10
2023-01-31T21:58:35.125Z,18.20
2023-01-31T22:03:38.877Z,9.02
2023-01-31T22:08:41.545Z,11.73
2023-01-31T22:13:45.672Z,13.68
2023-01-31T22:18:48.603Z,14.90
2023-01-31T22:23:53.199Z,16.55
2023-01-31T22:28:57.439Z,12.55
2023-01-31T22:34:00.292Z,8.18
2023-01-31T22:39:02.424Z,18.65
2023-01-31T22:44:04.604Z,8.95
2023-01-31T22:49:06.666Z,12.05
2023-01-31T22:54:08.659Z,10.43
2023-01-31T22:59:10.765Z,15.00
2023-01-31T23:04:14.174Z,15.55
2023-01-31T23:09:16.249Z,13.48
2023-01-31T23:14:18.717Z,7.88
2023-01-31T23:19:21.058Z,11.75
2023-01-31T23:24:23.186Z,12.90
2023-01-31T23:29:25.369Z,14.77
2023-01-31T23:34:27.331Z,8.25
2023-01-31T23:39:29.460Z,8.88
2023-01-31T23:44:31.523Z,5.65
2023-01-31T23:49:33.670Z,10.50
2023-01-31T23:54:36.264Z,8.23
2023-01-31T23:59:38.408Z,14.40
